sensor_id;sensor_type;location;lat;lon;timestamp;P1;durP1;ratioP1;P2;durP2;ratioP2
20306;SDS011;10312;52.434;13.206;2022-08-19T00:01:26;14.82;;;12.57;;
20306;SDS011;10312;52.434;13.206;2022-08-19T00:03:56;15.38;;;13.32;;
20306;SDS011;10312;52.434;13.206;2022-08-19T00:06:28;15.85;;;14.00;;
20306;SDS011;10312;52.434;13.206;2022-08-19T00:08:55;16.75;;;12.63;;
20306;SDS011;10312;52.434;13.206;2022-08-19T00:11:24;14.60;;;12.57;;
20306;SDS011;10312;52.434;13.206;2022-08-19T00:13:54;13.25;;;11.88;;
20306;SDS011;10312;52.434;13.206;2022-08-19T00:16:23;13.65;;;12.25;;
20306;SDS011;10312;52.434;13.206;2022-08-19T00:18:52;13.95;;;12.05;;
20306;SDS011;10312;52.434;13.206;2022-08-19T00:21:22;14.38;;;12.88;;
20306;SDS011;10312;52.434;13.206;2022-08-19T00:23:50;14.88;;;12.85;;
20306;SDS011;10312;52.434;13.206;2022-08-19T00:26:16;15.95;;;13.15;;
20306;SDS011;10312;52.434;13.206;2022-08-19T00:28:43;15.88;;;12.55;;
20306;SDS011;10312;52.434;13.206;2022-08-19T00:31:10;15.90;;;12.98;;
20306;SDS011;10312;52.434;13.206;2022-08-19T00:33:37;16.27;;;12.70;;
20306;SDS011;10312;52.434;13.206;2022-08-19T00:36:06;14.18;;;12.68;;
20306;SDS011;10312;52.434;13.206;2022-08-19T00:38:34;18.00;;;13.95;;
20306;SDS011;10312;52.434;13.206;2022-08-19T00:41:04;19.83;;;13.18;;
20306;SDS011;10312;52.434;13.206;2022-08-19T00:43:31;19.65;;;13.07;;
20306;SDS011;10312;52.434;13.206;2022-08-19T00:45:58;17.00;;;13.88;;
20306;SDS011;10312;52.434;13.206;2022-08-19T00:48:25;18.88;;;13.48;;
20306;SDS011;10312;52.434;13.206;2022-08-19T00:50:52;15.93;;;13.43;;
20306;SDS011;10312;52.434;13.206;2022-08-19T00:53:22;17.38;;;13.73;;
20306;SDS011;10312;52.434;13.206;2022-08-19T00:55:51;16.33;;;13.13;;
20306;SDS011;10312;52.434;13.206;2022-08-19T00:58:20;18.70;;;13.93;;
20306;SDS011;10312;52.434;13.206;2022-08-19T01:00:49;16.17;;;13.07;;
20306;SDS011;10312;52.434;13.206;2022-08-19T01:03:18;16.05;;;14.05;;
20306;SDS011;10312;52.434;13.206;2022-08-19T01:05:45;18.77;;;14.13;;
20306;SDS011;10312;52.434;13.206;2022-08-19T01:08:14;18.65;;;13.02;;
20306;SDS011;10312;52.434;13.206;2022-08-19T01:10:43;17.20;;;13.43;;
20306;SDS011;10312;52.434;13.206;2022-08-19T01:13:13;15.95;;;13.10;;
20306;SDS011;10312;52.434;13.206;2022-08-19T01:15:45;15.40;;;13.73;;
20306;SDS011;10312;52.434;13.206;2022-08-19T01:18:15;15.07;;;13.48;;
20306;SDS011;10312;52.434;13.206;2022-08-19T01:20:43;15.73;;;13.88;;
20306;SDS011;10312;52.434;13.206;2022-08-19T01:23:10;16.40;;;14.43;;
20306;SDS011;10312;52.434;13.206;2022-08-19T01:25:42;15.52;;;13.65;;
20306;SDS011;10312;52.434;13.206;2022-08-19T01:28:20;15.32;;;13.50;;
20306;SDS011;10312;52.434;13.206;2022-08-19T01:30:59;15.73;;;12.98;;
20306;SDS011;10312;52.434;13.206;2022-08-19T01:33:33;13.63;;;12.23;;
20306;SDS011;10312;52.434;13.206;2022-08-19T01:36:07;15.35;;;13.73;;
20306;SDS011;10312;52.434;13.206;2022-08-19T01:38:37;19.60;;;13.15;;
20306;SDS011;10312;52.434;13.206;2022-08-19T01:41:10;16.80;;;13.55;;
20306;SDS011;10312;52.434;13.206;2022-08-19T01:43:37;14.68;;;13.18;;
20306;SDS011;10312;52.434;13.206;2022-08-19T01:46:24;18.75;;;14.32;;
20306;SDS011;10312;52.434;13.206;2022-08-19T01:48:51;17.88;;;14.55;;
20306;SDS011;10312;52.434;13.206;2022-08-19T01:51:18;17.13;;;13.85;;
20306;SDS011;10312;52.434;13.206;2022-08-19T01:53:47;20.33;;;14.00;;
20306;SDS011;10312;52.434;13.206;2022-08-19T01:56:14;16.98;;;14.02;;
20306;SDS011;10312;52.434;13.206;2022-08-19T01:58:43;17.98;;;15.05;;
20306;SDS011;10312;52.434;13.206;2022-08-19T02:01:12;20.52;;;14.00;;
20306;SDS011;10312;52.434;13.206;2022-08-19T02:03:40;20.13;;;15.60;;
20306;SDS011;10312;52.434;13.206;2022-08-19T02:06:06;21.05;;;17.25;;
20306;SDS011;10312;52.434;13.206;2022-08-19T02:08:35;24.02;;;15.68;;
20306;SDS011;10312;52.434;13.206;2022-08-19T02:11:03;20.08;;;14.95;;
20306;SDS011;10312;52.434;13.206;2022-08-19T02:13:30;26.25;;;15.52;;
20306;SDS011;10312;52.434;13.206;2022-08-19T02:15:58;26.58;;;15.00;;
20306;SDS011;10312;52.434;13.206;2022-08-19T02:18:25;22.05;;;15.63;;
20306;SDS011;10312;52.434;13.206;2022-08-19T02:20:53;22.30;;;15.60;;
20306;SDS011;10312;52.434;13.206;2022-08-19T02:23:20;24.40;;;17.00;;
20306;SDS011;10312;52.434;13.206;2022-08-19T02:25:47;35.47;;;16.35;;
20306;SDS011;10312;52.434;13.206;2022-08-19T02:28:15;19.15;;;15.82;;
20306;SDS011;10312;52.434;13.206;2022-08-19T02:30:44;22.27;;;15.40;;
20306;SDS011;10312;52.434;13.206;2022-08-19T02:33:12;18.52;;;14.82;;
20306;SDS011;10312;52.434;13.206;2022-08-19T02:35:43;16.63;;;14.75;;
20306;SDS011;10312;52.434;13.206;2022-08-19T02:38:10;19.63;;;16.48;;
20306;SDS011;10312;52.434;13.206;2022-08-19T02:40:53;21.48;;;16.50;;
20306;SDS011;10312;52.434;13.206;2022-08-19T02:43:22;17.92;;;14.55;;
20306;SDS011;10312;52.434;13.206;2022-08-19T02:45:50;16.33;;;14.00;;
20306;SDS011;10312;52.434;13.206;2022-08-19T02:48:18;18.58;;;15.10;;
20306;SDS011;10312;52.434;13.206;2022-08-19T02:50:47;20.33;;;15.85;;
20306;SDS011;10312;52.434;13.206;2022-08-19T02:53:19;21.23;;;15.40;;
20306;SDS011;10312;52.434;13.206;2022-08-19T02:55:46;17.95;;;15.73;;
20306;SDS011;10312;52.434;13.206;2022-08-19T02:58:13;17.70;;;15.25;;
20306;SDS011;10312;52.434;13.206;2022-08-19T03:00:45;18.58;;;16.02;;
20306;SDS011;10312;52.434;13.206;2022-08-19T03:03:13;17.20;;;14.95;;
20306;SDS011;10312;52.434;13.206;2022-08-19T03:05:40;18.63;;;15.48;;
20306;SDS011;10312;52.434;13.206;2022-08-19T03:08:21;16.05;;;14.35;;
20306;SDS011;10312;52.434;13.206;2022-08-19T03:10:48;15.93;;;14.02;;
20306;SDS011;10312;52.434;13.206;2022-08-19T03:13:16;16.80;;;14.15;;
20306;SDS011;10312;52.434;13.206;2022-08-19T03:15:44;17.30;;;14.65;;
20306;SDS011;10312;52.434;13.206;2022-08-19T03:18:13;19.48;;;14.75;;
20306;SDS011;10312;52.434;13.206;2022-08-19T03:20:41;15.65;;;13.15;;
20306;SDS011;10312;52.434;13.206;2022-08-19T03:23:16;16.75;;;13.80;;
20306;SDS011;10312;52.434;13.206;2022-08-19T03:25:44;19.35;;;13.93;;
20306;SDS011;10312;52.434;13.206;2022-08-19T03:28:29;15.20;;;13.50;;
20306;SDS011;10312;52.434;13.206;2022-08-19T03:30:57;16.00;;;13.55;;
20306;SDS011;10312;52.434;13.206;2022-08-19T03:33:26;17.92;;;13.65;;
20306;SDS011;10312;52.434;13.206;2022-08-19T03:38:27;15.25;;;13.30;;
20306;SDS011;10312;52.434;13.206;2022-08-19T03:40:54;15.68;;;13.85;;
20306;SDS011;10312;52.434;13.206;2022-08-19T03:43:21;16.10;;;13.82;;
20306;SDS011;10312;52.434;13.206;2022-08-19T03:45:48;16.63;;;14.27;;
20306;SDS011;10312;52.434;13.206;2022-08-19T03:48:15;16.77;;;13.50;;
20306;SDS011;10312;52.434;13.206;2022-08-19T03:50:43;15.60;;;14.00;;
20306;SDS011;10312;52.434;13.206;2022-08-19T03:53:10;19.15;;;15.02;;
20306;SDS011;10312;52.434;13.206;2022-08-19T03:55:40;19.63;;;15.38;;
20306;SDS011;10312;52.434;13.206;2022-08-19T03:58:07;18.83;;;15.45;;
20306;SDS011;10312;52.434;13.206;2022-08-19T04:00:34;17.38;;;15.32;;
20306;SDS011;10312;52.434;13.206;2022-08-19T04:03:02;18.15;;;15.57;;
20306;SDS011;10312;52.434;13.206;2022-08-19T04:05:29;21.83;;;16.05;;
20306;SDS011;10312;52.434;13.206;2022-08-19T04:07:56;18.08;;;16.15;;
20306;SDS011;10312;52.434;13.206;2022-08-19T04:10:26;19.73;;;15.60;;
20306;SDS011;10312;52.434;13.206;2022-08-19T04:12:54;19.48;;;17.38;;
20306;SDS011;10312;52.434;13.206;2022-08-19T04:15:21;17.73;;;15.80;;
20306;SDS011;10312;52.434;13.206;2022-08-19T04:17:47;20.65;;;15.63;;
20306;SDS011;10312;52.434;13.206;2022-08-19T04:20:14;19.45;;;15.57;;
20306;SDS011;10312;52.434;13.206;2022-08-19T04:22:41;18.92;;;16.35;;
20306;SDS011;10312;52.434;13.206;2022-08-19T04:25:08;18.17;;;15.50;;
20306;SDS011;10312;52.434;13.206;2022-08-19T04:27:35;16.67;;;14.77;;
20306;SDS011;10312;52.434;13.206;2022-08-19T04:30:02;17.33;;;14.75;;
20306;SDS011;10312;52.434;13.206;2022-08-19T04:32:29;16.40;;;13.10;;
20306;SDS011;10312;52.434;13.206;2022-08-19T04:34:58;17.50;;;14.18;;
20306;SDS011;10312;52.434;13.206;2022-08-19T04:37:42;15.77;;;14.00;;
20306;SDS011;10312;52.434;13.206;2022-08-19T04:40:09;15.98;;;13.75;;
20306;SDS011;10312;52.434;13.206;2022-08-19T04:42:55;19.15;;;14.43;;
20306;SDS011;10312;52.434;13.206;2022-08-19T04:45:22;16.20;;;14.50;;
20306;SDS011;10312;52.434;13.206;2022-08-19T04:47:49;17.70;;;14.20;;
20306;SDS011;10312;52.434;13.206;2022-08-19T04:50:25;18.65;;;14.27;;
20306;SDS011;10312;52.434;13.206;2022-08-19T04:52:52;17.08;;;14.60;;
20306;SDS011;10312;52.434;13.206;2022-08-19T04:55:20;16.08;;;14.38;;
20306;SDS011;10312;52.434;13.206;2022-08-19T04:57:47;19.73;;;15.60;;
20306;SDS011;10312;52.434;13.206;2022-08-19T05:00:14;17.33;;;13.40;;
20306;SDS011;10312;52.434;13.206;2022-08-19T05:02:41;15.93;;;13.98;;
20306;SDS011;10312;52.434;13.206;2022-08-19T05:05:09;18.63;;;14.27;;
20306;SDS011;10312;52.434;13.206;2022-08-19T05:07:36;16.90;;;14.43;;
20306;SDS011;10312;52.434;13.206;2022-08-19T05:10:04;16.95;;;13.98;;
20306;SDS011;10312;52.434;13.206;2022-08-19T05:12:31;16.98;;;14.50;;
20306;SDS011;10312;52.434;13.206;2022-08-19T05:14:58;18.15;;;14.73;;
20306;SDS011;10312;52.434;13.206;2022-08-19T05:17:26;19.70;;;14.75;;
20306;SDS011;10312;52.434;13.206;2022-08-19T05:19:56;19.58;;;15.32;;
20306;SDS011;10312;52.434;13.206;2022-08-19T05:22:42;19.77;;;15.45;;
20306;SDS011;10312;52.434;13.206;2022-08-19T05:25:11;18.83;;;15.85;;
20306;SDS011;10312;52.434;13.206;2022-08-19T05:27:41;16.70;;;14.38;;
20306;SDS011;10312;52.434;13.206;2022-08-19T05:30:08;17.13;;;14.82;;
20306;SDS011;10312;52.434;13.206;2022-08-19T05:32:37;18.35;;;14.55;;
20306;SDS011;10312;52.434;13.206;2022-08-19T05:35:05;17.15;;;14.98;;
20306;SDS011;10312;52.434;13.206;2022-08-19T05:37:32;16.05;;;14.32;;
20306;SDS011;10312;52.434;13.206;2022-08-19T05:39:59;17.63;;;13.90;;
20306;SDS011;10312;52.434;13.206;2022-08-19T05:42:26;15.90;;;14.05;;
20306;SDS011;10312;52.434;13.206;2022-08-19T05:44:53;16.40;;;14.70;;
20306;SDS011;10312;52.434;13.206;2022-08-19T05:47:19;17.52;;;14.55;;
20306;SDS011;10312;52.434;13.206;2022-08-19T05:49:52;15.63;;;13.30;;
20306;SDS011;10312;52.434;13.206;2022-08-19T05:52:19;16.95;;;14.15;;
20306;SDS011;10312;52.434;13.206;2022-08-19T05:54:51;16.35;;;14.60;;
20306;SDS011;10312;52.434;13.206;2022-08-19T05:57:22;16.25;;;14.48;;
20306;SDS011;10312;52.434;13.206;2022-08-19T05:59:49;17.60;;;13.90;;
20306;SDS011;10312;52.434;13.206;2022-08-19T06:02:23;16.77;;;13.95;;
20306;SDS011;10312;52.434;13.206;2022-08-19T06:04:50;16.40;;;14.57;;
20306;SDS011;10312;52.434;13.206;2022-08-19T06:07:16;19.88;;;14.88;;
20306;SDS011;10312;52.434;13.206;2022-08-19T06:09:43;17.30;;;15.50;;
20306;SDS011;10312;52.434;13.206;2022-08-19T06:12:29;18.58;;;15.07;;
20306;SDS011;10312;52.434;13.206;2022-08-19T06:15:08;18.10;;;13.68;;
20306;SDS011;10312;52.434;13.206;2022-08-19T06:17:36;17.60;;;14.38;;
20306;SDS011;10312;52.434;13.206;2022-08-19T06:20:04;17.48;;;15.45;;
20306;SDS011;10312;52.434;13.206;2022-08-19T06:22:37;16.60;;;14.65;;
20306;SDS011;10312;52.434;13.206;2022-08-19T06:25:05;18.20;;;13.27;;
20306;SDS011;10312;52.434;13.206;2022-08-19T06:27:33;16.17;;;13.48;;
20306;SDS011;10312;52.434;13.206;2022-08-19T06:30:00;17.35;;;14.88;;
20306;SDS011;10312;52.434;13.206;2022-08-19T06:32:27;18.02;;;15.20;;
20306;SDS011;10312;52.434;13.206;2022-08-19T06:34:58;16.10;;;14.20;;
20306;SDS011;10312;52.434;13.206;2022-08-19T06:37:25;17.30;;;14.00;;
20306;SDS011;10312;52.434;13.206;2022-08-19T06:39:52;17.52;;;14.77;;
20306;SDS011;10312;52.434;13.206;2022-08-19T06:42:19;19.27;;;15.05;;
20306;SDS011;10312;52.434;13.206;2022-08-19T06:44:49;20.48;;;17.10;;
20306;SDS011;10312;52.434;13.206;2022-08-19T06:47:19;17.98;;;15.98;;
20306;SDS011;10312;52.434;13.206;2022-08-19T06:49:52;18.45;;;15.60;;
20306;SDS011;10312;52.434;13.206;2022-08-19T06:52:26;18.25;;;15.27;;
20306;SDS011;10312;52.434;13.206;2022-08-19T06:54:53;18.15;;;15.48;;
20306;SDS011;10312;52.434;13.206;2022-08-19T06:57:25;19.33;;;15.38;;
20306;SDS011;10312;52.434;13.206;2022-08-19T06:59:52;20.60;;;16.45;;
20306;SDS011;10312;52.434;13.206;2022-08-19T07:02:19;18.77;;;16.02;;
20306;SDS011;10312;52.434;13.206;2022-08-19T07:04:47;19.20;;;15.90;;
20306;SDS011;10312;52.434;13.206;2022-08-19T07:07:20;17.05;;;15.00;;
20306;SDS011;10312;52.434;13.206;2022-08-19T07:09:47;16.40;;;14.32;;
20306;SDS011;10312;52.434;13.206;2022-08-19T07:12:30;17.73;;;14.52;;
20306;SDS011;10312;52.434;13.206;2022-08-19T07:15:01;16.20;;;14.18;;
20306;SDS011;10312;52.434;13.206;2022-08-19T07:17:29;18.50;;;14.85;;
20306;SDS011;10312;52.434;13.206;2022-08-19T07:20:00;17.17;;;14.70;;
20306;SDS011;10312;52.434;13.206;2022-08-19T07:22:34;16.08;;;14.30;;
20306;SDS011;10312;52.434;13.206;2022-08-19T07:25:02;19.27;;;14.75;;
20306;SDS011;10312;52.434;13.206;2022-08-19T07:27:30;21.20;;;14.63;;
20306;SDS011;10312;52.434;13.206;2022-08-19T07:29:59;16.33;;;14.55;;
20306;SDS011;10312;52.434;13.206;2022-08-19T07:32:26;15.88;;;14.18;;
20306;SDS011;10312;52.434;13.206;2022-08-19T07:34:53;17.38;;;14.63;;
20306;SDS011;10312;52.434;13.206;2022-08-19T07:37:22;21.35;;;15.15;;
20306;SDS011;10312;52.434;13.206;2022-08-19T07:39:58;17.27;;;15.48;;
20306;SDS011;10312;52.434;13.206;2022-08-19T07:42:25;18.42;;;14.93;;
20306;SDS011;10312;52.434;13.206;2022-08-19T07:44:51;17.23;;;15.35;;
20306;SDS011;10312;52.434;13.206;2022-08-19T07:47:19;22.30;;;15.75;;
20306;SDS011;10312;52.434;13.206;2022-08-19T07:50:07;17.40;;;14.80;;
20306;SDS011;10312;52.434;13.206;2022-08-19T07:52:36;20.70;;;15.88;;
20306;SDS011;10312;52.434;13.206;2022-08-19T07:55:07;18.83;;;15.50;;
20306;SDS011;10312;52.434;13.206;2022-08-19T07:57:55;18.75;;;15.38;;
20306;SDS011;10312;52.434;13.206;2022-08-19T08:00:22;19.17;;;16.40;;
20306;SDS011;10312;52.434;13.206;2022-08-19T08:02:50;17.60;;;15.80;;
20306;SDS011;10312;52.434;13.206;2022-08-19T08:05:20;19.05;;;15.93;;
20306;SDS011;10312;52.434;13.206;2022-08-19T08:08:09;18.58;;;15.85;;
20306;SDS011;10312;52.434;13.206;2022-08-19T08:10:55;17.92;;;16.02;;
20306;SDS011;10312;52.434;13.206;2022-08-19T08:13:23;17.23;;;15.13;;
20306;SDS011;10312;52.434;13.206;2022-08-19T08:15:51;18.40;;;16.40;;
20306;SDS011;10312;52.434;13.206;2022-08-19T08:18:22;17.70;;;15.60;;
20306;SDS011;10312;52.434;13.206;2022-08-19T08:20:54;16.65;;;14.93;;
20306;SDS011;10312;52.434;13.206;2022-08-19T08:23:21;17.17;;;15.38;;
20306;SDS011;10312;52.434;13.206;2022-08-19T08:25:51;20.10;;;16.40;;
20306;SDS011;10312;52.434;13.206;2022-08-19T08:28:25;22.58;;;16.95;;
20306;SDS011;10312;52.434;13.206;2022-08-19T08:30:55;20.50;;;17.95;;
20306;SDS011;10312;52.434;13.206;2022-08-19T08:33:24;21.42;;;17.20;;
20306;SDS011;10312;52.434;13.206;2022-08-19T08:36:00;17.77;;;15.98;;
20306;SDS011;10312;52.434;13.206;2022-08-19T08:38:38;18.42;;;16.48;;
20306;SDS011;10312;52.434;13.206;2022-08-19T08:41:16;18.77;;;16.77;;
20306;SDS011;10312;52.434;13.206;2022-08-19T08:44:02;20.63;;;17.23;;
20306;SDS011;10312;52.434;13.206;2022-08-19T08:46:38;19.45;;;17.35;;
20306;SDS011;10312;52.434;13.206;2022-08-19T08:49:17;21.48;;;18.50;;
20306;SDS011;10312;52.434;13.206;2022-08-19T08:51:51;19.83;;;17.73;;
20306;SDS011;10312;52.434;13.206;2022-08-19T08:54:27;20.15;;;17.42;;
20306;SDS011;10312;52.434;13.206;2022-08-19T08:57:02;21.05;;;17.95;;
20306;SDS011;10312;52.434;13.206;2022-08-19T08:59:32;18.02;;;16.15;;
20306;SDS011;10312;52.434;13.206;2022-08-19T09:02:01;19.63;;;16.95;;
20306;SDS011;10312;52.434;13.206;2022-08-19T09:04:28;20.30;;;17.08;;
20306;SDS011;10312;52.434;13.206;2022-08-19T09:07:01;20.95;;;17.52;;
20306;SDS011;10312;52.434;13.206;2022-08-19T09:12:42;17.35;;;15.55;;
20306;SDS011;10312;52.434;13.206;2022-08-19T09:15:16;19.02;;;16.95;;
20306;SDS011;10312;52.434;13.206;2022-08-19T09:17:58;19.05;;;15.98;;
20306;SDS011;10312;52.434;13.206;2022-08-19T09:20:27;17.67;;;15.77;;
20306;SDS011;10312;52.434;13.206;2022-08-19T09:22:55;17.58;;;15.68;;
20306;SDS011;10312;52.434;13.206;2022-08-19T09:25:22;17.60;;;15.52;;
20306;SDS011;10312;52.434;13.206;2022-08-19T09:27:54;19.38;;;16.60;;
20306;SDS011;10312;52.434;13.206;2022-08-19T09:30:33;18.13;;;16.23;;
20306;SDS011;10312;52.434;13.206;2022-08-19T09:33:01;18.83;;;15.48;;
20306;SDS011;10312;52.434;13.206;2022-08-19T09:35:29;16.88;;;15.07;;
20306;SDS011;10312;52.434;13.206;2022-08-19T09:37:57;16.52;;;14.52;;
20306;SDS011;10312;52.434;13.206;2022-08-19T09:40:28;16.73;;;14.98;;
20306;SDS011;10312;52.434;13.206;2022-08-19T09:43:03;15.80;;;14.02;;
20306;SDS011;10312;52.434;13.206;2022-08-19T09:45:39;16.67;;;14.38;;
20306;SDS011;10312;52.434;13.206;2022-08-19T09:48:06;15.93;;;13.98;;
20306;SDS011;10312;52.434;13.206;2022-08-19T09:50:35;16.00;;;14.20;;
20306;SDS011;10312;52.434;13.206;2022-08-19T09:53:17;15.10;;;13.60;;
20306;SDS011;10312;52.434;13.206;2022-08-19T09:55:44;17.83;;;13.75;;
20306;SDS011;10312;52.434;13.206;2022-08-19T09:58:11;14.80;;;13.25;;
20306;SDS011;10312;52.434;13.206;2022-08-19T10:00:38;17.60;;;14.07;;
20306;SDS011;10312;52.434;13.206;2022-08-19T10:03:05;14.35;;;12.85;;
20306;SDS011;10312;52.434;13.206;2022-08-19T10:05:33;17.05;;;14.05;;
20306;SDS011;10312;52.434;13.206;2022-08-19T10:08:22;15.50;;;13.93;;
20306;SDS011;10312;52.434;13.206;2022-08-19T10:10:54;15.00;;;13.45;;
20306;SDS011;10312;52.434;13.206;2022-08-19T10:13:26;14.85;;;12.93;;
20306;SDS011;10312;52.434;13.206;2022-08-19T10:15:55;17.75;;;13.90;;
20306;SDS011;10312;52.434;13.206;2022-08-19T10:18:24;15.27;;;13.77;;
20306;SDS011;10312;52.434;13.206;2022-08-19T10:20:52;17.40;;;14.00;;
20306;SDS011;10312;52.434;13.206;2022-08-19T10:23:21;15.32;;;13.63;;
20306;SDS011;10312;52.434;13.206;2022-08-19T10:25:48;16.13;;;13.35;;
20306;SDS011;10312;52.434;13.206;2022-08-19T10:28:17;15.85;;;13.52;;
20306;SDS011;10312;52.434;13.206;2022-08-19T10:30:45;13.93;;;12.43;;
20306;SDS011;10312;52.434;13.206;2022-08-19T10:33:13;13.75;;;12.10;;
20306;SDS011;10312;52.434;13.206;2022-08-19T10:36:06;14.23;;;12.45;;
20306;SDS011;10312;52.434;13.206;2022-08-19T10:38:36;14.60;;;13.10;;
20306;SDS011;10312;52.434;13.206;2022-08-19T10:41:08;15.43;;;12.15;;
20306;SDS011;10312;52.434;13.206;2022-08-19T10:43:36;14.85;;;13.18;;
20306;SDS011;10312;52.434;13.206;2022-08-19T10:46:05;15.07;;;13.48;;
20306;SDS011;10312;52.434;13.206;2022-08-19T10:48:40;16.95;;;14.25;;
20306;SDS011;10312;52.434;13.206;2022-08-19T10:51:07;19.05;;;13.60;;
20306;SDS011;10312;52.434;13.206;2022-08-19T10:53:54;15.25;;;13.13;;
20306;SDS011;10312;52.434;13.206;2022-08-19T10:56:22;15.25;;;13.50;;
20306;SDS011;10312;52.434;13.206;2022-08-19T10:59:07;15.65;;;13.18;;
20306;SDS011;10312;52.434;13.206;2022-08-19T11:01:34;15.30;;;13.73;;
20306;SDS011;10312;52.434;13.206;2022-08-19T11:04:03;15.02;;;13.02;;
20306;SDS011;10312;52.434;13.206;2022-08-19T11:06:33;13.57;;;12.18;;
20306;SDS011;10312;52.434;13.206;2022-08-19T11:09:00;15.43;;;13.55;;
20306;SDS011;10312;52.434;13.206;2022-08-19T11:11:27;14.77;;;13.25;;
20306;SDS011;10312;52.434;13.206;2022-08-19T11:13:54;15.52;;;13.40;;
20306;SDS011;10312;52.434;13.206;2022-08-19T11:16:22;14.45;;;12.95;;
20306;SDS011;10312;52.434;13.206;2022-08-19T11:18:52;14.65;;;13.15;;
20306;SDS011;10312;52.434;13.206;2022-08-19T11:21:25;15.27;;;13.50;;
20306;SDS011;10312;52.434;13.206;2022-08-19T11:23:56;15.02;;;13.23;;
20306;SDS011;10312;52.434;13.206;2022-08-19T11:26:23;15.80;;;13.10;;
20306;SDS011;10312;52.434;13.206;2022-08-19T11:28:50;16.70;;;12.93;;
20306;SDS011;10312;52.434;13.206;2022-08-19T11:31:21;17.63;;;12.73;;
20306;SDS011;10312;52.434;13.206;2022-08-19T11:33:55;13.18;;;11.77;;
20306;SDS011;10312;52.434;13.206;2022-08-19T11:36:23;12.77;;;11.38;;
20306;SDS011;10312;52.434;13.206;2022-08-19T11:38:50;12.90;;;11.57;;
20306;SDS011;10312;52.434;13.206;2022-08-19T11:41:18;12.90;;;11.60;;
20306;SDS011;10312;52.434;13.206;2022-08-19T11:43:46;12.50;;;11.18;;
20306;SDS011;10312;52.434;13.206;2022-08-19T11:46:13;13.10;;;10.93;;
20306;SDS011;10312;52.434;13.206;2022-08-19T11:48:42;13.57;;;11.15;;
20306;SDS011;10312;52.434;13.206;2022-08-19T11:51:12;15.77;;;10.63;;
20306;SDS011;10312;52.434;13.206;2022-08-19T11:53:41;11.13;;;9.93;;
20306;SDS011;10312;52.434;13.206;2022-08-19T11:56:08;12.43;;;10.25;;
20306;SDS011;10312;52.434;13.206;2022-08-19T11:58:35;10.40;;;9.30;;
20306;SDS011;10312;52.434;13.206;2022-08-19T12:01:05;10.27;;;8.90;;
20306;SDS011;10312;52.434;13.206;2022-08-19T12:03:33;9.88;;;8.82;;
20306;SDS011;10312;52.434;13.206;2022-08-19T12:06:08;11.60;;;9.20;;
20306;SDS011;10312;52.434;13.206;2022-08-19T12:08:36;9.85;;;8.68;;
20306;SDS011;10312;52.434;13.206;2022-08-19T12:11:03;11.68;;;9.23;;
20306;SDS011;10312;52.434;13.206;2022-08-19T12:13:30;11.95;;;9.45;;
20306;SDS011;10312;52.434;13.206;2022-08-19T12:15:57;10.10;;;9.10;;
20306;SDS011;10312;52.434;13.206;2022-08-19T12:18:25;9.93;;;8.93;;
20306;SDS011;10312;52.434;13.206;2022-08-19T12:20:52;10.38;;;8.80;;
20306;SDS011;10312;52.434;13.206;2022-08-19T12:23:20;10.73;;;8.48;;
20306;SDS011;10312;52.434;13.206;2022-08-19T12:25:48;9.48;;;8.15;;
20306;SDS011;10312;52.434;13.206;2022-08-19T12:28:22;10.30;;;8.07;;
20306;SDS011;10312;52.434;13.206;2022-08-19T12:30:50;11.95;;;8.98;;
20306;SDS011;10312;52.434;13.206;2022-08-19T12:33:18;10.50;;;8.82;;
20306;SDS011;10312;52.434;13.206;2022-08-19T12:35:46;14.70;;;12.32;;
20306;SDS011;10312;52.434;13.206;2022-08-19T12:38:13;18.90;;;14.38;;
20306;SDS011;10312;52.434;13.206;2022-08-19T12:40:41;14.32;;;12.02;;
20306;SDS011;10312;52.434;13.206;2022-08-19T12:43:08;13.48;;;11.40;;
20306;SDS011;10312;52.434;13.206;2022-08-19T12:45:34;14.23;;;11.10;;
20306;SDS011;10312;52.434;13.206;2022-08-19T12:48:02;11.52;;;10.15;;
20306;SDS011;10312;52.434;13.206;2022-08-19T12:50:50;11.15;;;9.18;;
20306;SDS011;10312;52.434;13.206;2022-08-19T12:53:17;9.57;;;8.52;;
20306;SDS011;10312;52.434;13.206;2022-08-19T12:55:44;9.52;;;8.00;;
20306;SDS011;10312;52.434;13.206;2022-08-19T12:58:10;9.90;;;8.30;;
20306;SDS011;10312;52.434;13.206;2022-08-19T13:00:39;8.30;;;7.45;;
20306;SDS011;10312;52.434;13.206;2022-08-19T13:03:06;8.00;;;7.20;;
20306;SDS011;10312;52.434;13.206;2022-08-19T13:05:33;9.30;;;8.13;;
20306;SDS011;10312;52.434;13.206;2022-08-19T13:08:00;10.57;;;9.48;;
20306;SDS011;10312;52.434;13.206;2022-08-19T13:10:31;12.35;;;11.05;;
20306;SDS011;10312;52.434;13.206;2022-08-19T13:13:05;14.52;;;12.10;;
20306;SDS011;10312;52.434;13.206;2022-08-19T13:15:36;16.85;;;13.98;;
20306;SDS011;10312;52.434;13.206;2022-08-19T13:18:07;18.10;;;15.13;;
20306;SDS011;10312;52.434;13.206;2022-08-19T13:20:35;18.02;;;16.10;;
20306;SDS011;10312;52.434;13.206;2022-08-19T13:23:03;20.48;;;16.63;;
20306;SDS011;10312;52.434;13.206;2022-08-19T13:25:30;19.08;;;16.13;;
20306;SDS011;10312;52.434;13.206;2022-08-19T13:27:57;20.20;;;15.98;;
20306;SDS011;10312;52.434;13.206;2022-08-19T13:30:24;19.05;;;17.02;;
20306;SDS011;10312;52.434;13.206;2022-08-19T13:33:09;20.80;;;16.95;;
20306;SDS011;10312;52.434;13.206;2022-08-19T13:38:13;24.88;;;17.08;;
20306;SDS011;10312;52.434;13.206;2022-08-19T13:40:42;19.58;;;16.80;;
20306;SDS011;10312;52.434;13.206;2022-08-19T13:43:09;17.83;;;15.40;;
20306;SDS011;10312;52.434;13.206;2022-08-19T13:45:52;18.17;;;16.27;;
20306;SDS011;10312;52.434;13.206;2022-08-19T13:48:21;18.52;;;16.42;;
20306;SDS011;10312;52.434;13.206;2022-08-19T13:50:49;17.35;;;15.48;;
20306;SDS011;10312;52.434;13.206;2022-08-19T13:53:17;17.75;;;14.80;;
20306;SDS011;10312;52.434;13.206;2022-08-19T13:55:44;18.70;;;15.57;;
20306;SDS011;10312;52.434;13.206;2022-08-19T13:58:11;16.58;;;14.25;;
20306;SDS011;10312;52.434;13.206;2022-08-19T14:00:39;15.70;;;14.05;;
20306;SDS011;10312;52.434;13.206;2022-08-19T14:03:07;16.35;;;14.60;;
20306;SDS011;10312;52.434;13.206;2022-08-19T14:05:35;16.95;;;14.27;;
20306;SDS011;10312;52.434;13.206;2022-08-19T14:10:54;14.65;;;13.10;;
20306;SDS011;10312;52.434;13.206;2022-08-19T14:13:22;14.25;;;12.77;;
20306;SDS011;10312;52.434;13.206;2022-08-19T14:15:49;14.13;;;12.63;;
20306;SDS011;10312;52.434;13.206;2022-08-19T14:18:17;15.30;;;13.13;;
20306;SDS011;10312;52.434;13.206;2022-08-19T14:20:44;13.52;;;11.93;;
20306;SDS011;10312;52.434;13.206;2022-08-19T14:23:11;15.27;;;13.23;;
20306;SDS011;10312;52.434;13.206;2022-08-19T14:25:39;14.27;;;12.52;;
20306;SDS011;10312;52.434;13.206;2022-08-19T14:28:05;13.45;;;12.05;;
20306;SDS011;10312;52.434;13.206;2022-08-19T14:30:34;13.88;;;12.10;;
20306;SDS011;10312;52.434;13.206;2022-08-19T14:33:04;14.60;;;12.90;;
20306;SDS011;10312;52.434;13.206;2022-08-19T14:35:32;13.18;;;11.70;;
20306;SDS011;10312;52.434;13.206;2022-08-19T14:38:03;14.98;;;12.27;;